createdAt,value
2023-02-04T00:00:07.830Z,74.67
2023-02-04T00:02:34.895Z,75.59
2023-02-04T00:05:02.111Z,75.70
2023-02-04T00:07:29.153Z,76.92
2023-02-04T00:09:56.099Z,76.28
2023-02-04T00:12:24.646Z,76.01
2023-02-04T00:14:51.530Z,75.22
2023-02-04T00:17:18.407Z,73.69
2023-02-04T00:19:45.320Z,74.79
2023-02-04T00:22:12.285Z,73.89
2023-02-04T00:24:39.178Z,74.80
2023-02-04T00:27:07.632Z,75.06
2023-02-04T00:29:34.598Z,74.49
2023-02-04T00:32:01.812Z,74.28
2023-02-04T00:34:28.921Z,73.38
2023-02-04T00:36:55.894Z,73.38
2023-02-04T00:39:22.999Z,73.38
2023-02-04T00:41:49.951Z,72.48
2023-02-04T00:44:17.011Z,72.79
2023-02-04T00:46:44.016Z,72.45
2023-02-04T00:49:11.297Z,73.24
2023-02-04T00:51:39.859Z,72.14
2023-02-04T00:54:07.907Z,71.65
2023-02-04T00:56:35.014Z,71.19
2023-02-04T00:59:02.833Z,69.56
2023-02-04T01:01:29.785Z,69.06
2023-02-04T01:03:56.773Z,68.53
2023-02-04T01:06:24.131Z,68.57
2023-02-04T01:08:51.543Z,69.97
2023-02-04T01:11:19.154Z,69.63
2023-02-04T01:13:46.346Z,69.86
2023-02-04T01:16:13.673Z,68.32
2023-02-04T01:18:40.833Z,67.49
2023-02-04T01:21:07.878Z,67.17
2023-02-04T01:23:35.912Z,67.19
2023-02-04T01:26:03.011Z,67.51
2023-02-04T01:28:31.388Z,66.69
2023-02-04T01:30:58.886Z,66.15
2023-02-04T01:33:26.052Z,67.21
2023-02-04T01:35:53.058Z,66.99
2023-02-04T01:38:19.953Z,66.41
2023-02-04T01:40:47.799Z,66.17
2023-02-04T01:43:14.785Z,65.33
2023-02-04T01:45:41.910Z,65.45
2023-02-04T01:48:09.597Z,66.04
2023-02-04T01:50:37.424Z,66.32
2023-02-04T01:53:04.647Z,67.02
2023-02-04T01:55:34.094Z,67.62
2023-02-04T01:58:01.977Z,67.95
2023-02-04T02:00:33.503Z,66.34
2023-02-04T02:03:00.683Z,64.53
2023-02-04T02:05:40.578Z,65.71
2023-02-04T02:08:08.578Z,68.26
2023-02-04T02:10:40.067Z,67.21
2023-02-04T02:13:12.498Z,65.93
2023-02-04T02:15:40.567Z,65.11
2023-02-04T02:18:08.759Z,64.45
2023-02-04T02:20:36.836Z,65.14
2023-02-04T02:23:27.179Z,64.62
2023-02-04T02:25:54.147Z,64.90
2023-02-04T02:28:23.355Z,64.60
2023-02-04T02:30:51.197Z,63.79
2023-02-04T02:33:21.048Z,64.37
2023-02-04T02:35:48.878Z,63.40
2023-02-04T02:38:17.065Z,62.04
2023-02-04T02:40:44.490Z,61.31
2023-02-04T02:43:17.819Z,60.94
2023-02-04T02:45:45.633Z,60.34
2023-02-04T02:48:13.099Z,62.17
2023-02-04T02:50:41.290Z,61.61
2023-02-04T02:53:16.675Z,61.43
2023-02-04T02:55:45.803Z,60.44
2023-02-04T02:58:34.642Z,60.52
2023-02-04T03:01:06.464Z,67.76
2023-02-04T03:04:02.765Z,67.15
2023-02-04T03:06:29.963Z,68.04
2023-02-04T03:08:57.840Z,70.32
2023-02-04T03:11:26.417Z,70.24
2023-02-04T03:13:54.257Z,70.88
2023-02-04T03:16:21.205Z,71.20
2023-02-04T03:18:49.552Z,66.83
2023-02-04T03:21:16.798Z,67.98
2023-02-04T03:23:43.769Z,69.43
2023-02-04T03:26:10.831Z,69.47
2023-02-04T03:28:42.481Z,68.26
2023-02-04T03:31:10.405Z,67.73
2023-02-04T03:33:37.458Z,66.51
2023-02-04T03:36:04.584Z,66.31
2023-02-04T03:38:31.505Z,65.32
2023-02-04T03:40:58.434Z,64.98
2023-02-04T03:43:25.374Z,65.74
2023-02-04T03:45:52.445Z,67.20
2023-02-04T03:48:19.495Z,66.58
2023-02-04T03:50:46.430Z,67.16
2023-02-04T03:53:13.608Z,67.10
2023-02-04T03:55:40.535Z,67.76
2023-02-04T03:58:07.613Z,68.79
2023-02-04T04:00:34.571Z,69.44
2023-02-04T04:03:01.603Z,69.34
2023-02-04T04:05:28.831Z,71.24
2023-02-04T04:07:56.085Z,75.19
2023-02-04T04:10:23.315Z,78.56
2023-02-04T04:12:50.359Z,79.02
2023-02-04T04:15:17.407Z,78.46
2023-02-04T04:17:45.032Z,79.96
2023-02-04T04:20:12.982Z,80.14
2023-02-04T04:22:40.268Z,79.04
2023-02-04T04:25:08.005Z,79.12
2023-02-04T04:27:34.920Z,79.16
2023-02-04T04:30:02.213Z,78.87
2023-02-04T04:32:29.168Z,77.80
2023-02-04T04:34:56.419Z,78.12
2023-02-04T04:37:23.287Z,78.07
2023-02-04T04:39:50.272Z,78.57
2023-02-04T04:42:17.177Z,77.90
2023-02-04T04:44:44.601Z,78.49
2023-02-04T04:47:11.713Z,79.89
2023-02-04T04:49:38.823Z,79.71
2023-02-04T04:52:05.789Z,81.18
2023-02-04T04:54:32.723Z,81.25
2023-02-04T04:56:59.620Z,81.63
2023-02-04T04:59:26.449Z,82.18
2023-02-04T05:01:53.377Z,83.80
2023-02-04T05:04:20.266Z,83.57
2023-02-04T05:06:47.192Z,83.82
2023-02-04T05:09:15.301Z,83.66
2023-02-04T05:11:42.181Z,85.08
2023-02-04T05:14:09.127Z,84.15
2023-02-04T05:16:36.079Z,83.29
2023-02-04T05:19:02.995Z,83.15
2023-02-04T05:21:29.831Z,82.17
2023-02-04T05:23:56.699Z,82.56
2023-02-04T05:26:30.261Z,82.10
2023-02-04T05:28:57.893Z,82.31
2023-02-04T05:31:24.904Z,82.81
2023-02-04T05:33:51.966Z,82.31
2023-02-04T05:36:18.851Z,82.89
2023-02-04T05:38:45.743Z,83.15
2023-02-04T05:41:13.038Z,83.11
2023-02-04T05:43:40.218Z,82.90
2023-02-04T05:46:07.177Z,82.62
2023-02-04T05:48:34.250Z,82.80
2023-02-04T05:51:01.095Z,81.72
2023-02-04T05:53:28.089Z,81.68
2023-02-04T05:55:54.986Z,81.69
2023-02-04T05:58:21.953Z,82.62
2023-02-04T06:00:48.790Z,81.96
2023-02-04T06:03:15.818Z,82.95
2023-02-04T06:05:44.361Z,85.01
2023-02-04T06:08:11.351Z,83.62
2023-02-04T06:10:38.224Z,85.97
2023-02-04T06:13:05.140Z,89.21
2023-02-04T06:15:31.974Z,91.42
2023-02-04T06:17:59.066Z,91.68
2023-02-04T06:20:26.165Z,93.76
2023-02-04T06:22:54.584Z,94.18
2023-02-04T06:25:22.713Z,94.48
2023-02-04T06:27:49.828Z,93.53
2023-02-04T06:30:17.475Z,92.39
2023-02-04T06:32:45.025Z,91.86
2023-02-04T06:35:13.293Z,90.09
2023-02-04T06:37:40.229Z,90.85
2023-02-04T06:40:08.789Z,91.55
2023-02-04T06:42:35.711Z,90.93
2023-02-04T06:45:03.035Z,89.63
2023-02-04T06:47:29.999Z,89.80
2023-02-04T06:49:56.890Z,90.68
2023-02-04T06:52:23.757Z,91.54
2023-02-04T06:54:50.662Z,91.08
2023-02-04T06:57:17.692Z,91.06
2023-02-04T06:59:44.629Z,90.70
2023-02-04T07:02:12.592Z,90.25
2023-02-04T07:04:39.489Z,90.17
2023-02-04T07:07:06.458Z,89.91
2023-02-04T07:09:33.311Z,89.86
2023-02-04T07:12:00.275Z,89.62
2023-02-04T07:14:27.227Z,89.04
2023-02-04T07:16:54.151Z,88.44
2023-02-04T07:19:21.363Z,88.94
2023-02-04T07:21:48.308Z,89.57
2023-02-04T07:24:15.205Z,90.32
2023-02-04T07:26:42.106Z,89.61
2023-02-04T07:29:17.316Z,90.14
2023-02-04T07:31:48.176Z,90.61
2023-02-04T07:34:15.851Z,92.07
2023-02-04T07:36:42.858Z,91.47
2023-02-04T07:39:10.210Z,92.08
2023-02-04T07:41:37.402Z,91.69
2023-02-04T07:44:04.765Z,91.17
2023-02-04T07:46:31.862Z,94.01
2023-02-04T07:48:58.840Z,97.16
2023-02-04T07:51:27.760Z,97.82
2023-02-04T07:53:55.929Z,99.86
2023-02-04T07:56:23.221Z,100.00
2023-02-04T07:58:50.229Z,99.36
2023-02-04T08:01:17.187Z,97.66
2023-02-04T08:03:44.455Z,96.97
2023-02-04T08:06:11.523Z,98.44
2023-02-04T08:08:38.431Z,98.63
2023-02-04T08:11:05.646Z,98.33
2023-02-04T08:13:32.677Z,100.00
2023-02-04T08:15:59.648Z,100.00
2023-02-04T08:18:26.571Z,98.61
2023-02-04T08:20:53.548Z,97.29
2023-02-04T08:23:20.592Z,98.93
2023-02-04T08:25:47.636Z,100.00
2023-02-04T08:28:14.645Z,100.00
2023-02-04T08:30:41.651Z,99.86
2023-02-04T08:33:08.564Z,99.39
2023-02-04T08:35:35.470Z,100.00
2023-02-04T08:38:02.518Z,100.00
2023-02-04T08:40:29.673Z,100.00
2023-02-04T08:42:56.632Z,100.00
2023-02-04T08:45:23.507Z,100.00
2023-02-04T08:47:50.384Z,100.00
2023-02-04T08:50:17.486Z,100.00
2023-02-04T08:52:44.681Z,100.00
2023-02-04T08:55:11.579Z,100.00
2023-02-04T08:57:38.506Z,100.00
2023-02-04T09:00:05.895Z,100.00
2023-02-04T09:02:32.767Z,100.00
2023-02-04T09:04:59.620Z,100.00
2023-02-04T09:07:26.478Z,100.00
2023-02-04T09:09:53.506Z,100.00
2023-02-04T09:12:20.481Z,100.00
2023-02-04T09:14:47.485Z,100.00
2023-02-04T09:17:14.407Z,100.00
2023-02-04T09:19:41.244Z,99.54
2023-02-04T09:22:08.168Z,99.92
2023-02-04T09:24:35.072Z,97.88
2023-02-04T09:27:01.933Z,94.61
2023-02-04T09:29:28.780Z,93.19
2023-02-04T09:31:55.817Z,93.54
2023-02-04T09:34:22.818Z,95.27
2023-02-04T09:36:50.243Z,97.49
2023-02-04T09:39:17.216Z,100.00
2023-02-04T09:41:44.261Z,96.96
2023-02-04T09:44:16.635Z,97.58
2023-02-04T09:46:50.643Z,95.55
2023-02-04T09:49:17.774Z,98.23
2023-02-04T09:51:47.009Z,95.76
2023-02-04T09:54:17.578Z,84.29
2023-02-04T09:56:45.001Z,88.37
2023-02-04T09:59:20.749Z,88.32
2023-02-04T10:02:26.842Z,82.50
2023-02-04T10:04:57.885Z,77.19
2023-02-04T10:07:26.855Z,73.92
2023-02-04T10:09:54.529Z,68.40
2023-02-04T10:12:21.801Z,69.82
2023-02-04T10:14:49.872Z,65.94
2023-02-04T10:17:21.445Z,65.68
2023-02-04T10:19:48.871Z,73.09
2023-02-04T10:22:21.652Z,75.12
2023-02-04T10:24:48.606Z,80.32
2023-02-04T10:27:16.437Z,78.70
2023-02-04T10:29:55.845Z,80.96
2023-02-04T10:32:31.667Z,85.31
2023-02-04T10:35:02.898Z,79.36
2023-02-04T10:37:30.833Z,82.43
2023-02-04T10:39:58.050Z,83.48
2023-02-04T10:42:30.380Z,82.06
2023-02-04T10:44:58.119Z,78.68
2023-02-04T10:47:29.081Z,77.28
2023-02-04T10:50:17.962Z,76.50
2023-02-04T10:52:49.709Z,79.29
2023-02-04T10:55:24.360Z,78.89
2023-02-04T10:57:55.331Z,78.28
2023-02-04T11:00:25.010Z,79.29
2023-02-04T11:03:30.931Z,77.52
2023-02-04T11:06:00.665Z,79.58
2023-02-04T11:08:34.424Z,78.81
2023-02-04T11:11:08.440Z,78.77
2023-02-04T11:13:50.336Z,79.94
2023-02-04T11:16:17.695Z,81.70
2023-02-04T11:19:01.363Z,81.34
2023-02-04T11:21:33.960Z,80.95
2023-02-04T11:24:24.432Z,81.94
2023-02-04T11:27:05.001Z,86.34
2023-02-04T11:29:38.937Z,85.68
2023-02-04T11:32:36.235Z,84.82
2023-02-04T11:35:08.017Z,87.13
2023-02-04T11:37:40.361Z,89.59
2023-02-04T11:40:25.688Z,89.13
2023-02-04T11:43:12.673Z,88.07
2023-02-04T11:45:42.223Z,87.15
2023-02-04T11:48:15.807Z,88.13
2023-02-04T11:50:42.982Z,87.05
2023-02-04T11:53:12.001Z,89.60
2023-02-04T11:55:47.285Z,88.36
2023-02-04T11:58:17.133Z,87.82
2023-02-04T12:00:44.708Z,86.23
2023-02-04T12:03:26.968Z,85.76
2023-02-04T12:05:57.493Z,84.20
2023-02-04T12:08:24.425Z,84.72
2023-02-04T12:11:11.418Z,89.36
2023-02-04T12:13:50.085Z,89.49
2023-02-04T12:16:17.047Z,92.11
2023-02-04T12:18:44.022Z,96.21
2023-02-04T12:21:11.030Z,96.65
2023-02-04T12:23:37.891Z,96.17
2023-02-04T12:26:04.994Z,96.23
2023-02-04T12:28:31.965Z,96.62
2023-02-04T12:30:58.925Z,97.35
2023-02-04T12:33:26.014Z,95.86
2023-02-04T12:35:53.324Z,94.36
2023-02-04T12:38:20.779Z,93.68
2023-02-04T12:40:47.730Z,95.44
2023-02-04T12:43:14.824Z,96.21
2023-02-04T12:45:45.814Z,96.00
2023-02-04T12:48:14.120Z,96.45
2023-02-04T12:50:41.608Z,96.59
2023-02-04T12:53:09.025Z,98.20
2023-02-04T12:55:36.435Z,96.65
2023-02-04T12:58:03.825Z,96.07
2023-02-04T13:00:31.210Z,96.99
2023-02-04T13:03:00.954Z,97.73
2023-02-04T13:05:28.253Z,98.02
2023-02-04T13:07:55.246Z,98.91
2023-02-04T13:10:24.057Z,98.44
2023-02-04T13:12:51.688Z,97.34
2023-02-04T13:15:18.837Z,97.65
2023-02-04T13:17:46.073Z,97.00
2023-02-04T13:20:13.301Z,96.78
2023-02-04T13:22:40.524Z,96.09
2023-02-04T13:25:07.677Z,96.51
2023-02-04T13:27:34.585Z,97.43
2023-02-04T13:30:01.741Z,96.26
2023-02-04T13:32:28.635Z,96.60
2023-02-04T13:34:55.520Z,95.36
2023-02-04T13:37:22.536Z,95.46
2023-02-04T13:39:49.426Z,94.86
2023-02-04T13:42:16.476Z,94.58
2023-02-04T13:44:43.502Z,93.72
2023-02-04T13:47:10.342Z,92.68
2023-02-04T13:49:37.240Z,93.86
2023-02-04T13:52:04.267Z,93.80
2023-02-04T13:54:31.218Z,93.53
2023-02-04T13:56:58.108Z,93.36
2023-02-04T13:59:25.068Z,94.10
2023-02-04T14:01:51.943Z,93.15
2023-02-04T14:04:18.836Z,93.88
2023-02-04T14:06:45.756Z,93.49
2023-02-04T14:09:13.209Z,92.70
2023-02-04T14:11:40.861Z,90.11
2023-02-04T14:14:07.989Z,91.32
2023-02-04T14:16:37.545Z,91.00
2023-02-04T14:19:05.685Z,90.17
2023-02-04T14:21:33.179Z,89.08
2023-02-04T14:24:00.672Z,88.59
2023-02-04T14:26:27.713Z,90.13
2023-02-04T14:28:54.610Z,90.36
2023-02-04T14:31:21.738Z,89.92
2023-02-04T14:33:50.359Z,90.25
2023-02-04T14:36:17.509Z,90.88
2023-02-04T14:38:44.498Z,90.55
2023-02-04T14:41:16.411Z,89.18
2023-02-04T14:43:43.526Z,92.49
2023-02-04T14:46:10.495Z,90.85
2023-02-04T14:48:37.424Z,90.47
2023-02-04T14:51:04.837Z,90.28
2023-02-04T14:53:31.802Z,91.44
2023-02-04T14:55:58.809Z,91.74
2023-02-04T14:58:27.817Z,91.28
2023-02-04T15:00:55.311Z,90.62
2023-02-04T15:03:22.430Z,93.38
2023-02-04T15:05:49.354Z,92.44
2023-02-04T15:08:16.200Z,93.25
2023-02-04T15:10:43.261Z,94.24
2023-02-04T15:13:10.298Z,93.85
2023-02-04T15:15:37.475Z,93.84
2023-02-04T15:18:04.433Z,94.79
2023-02-04T15:20:31.734Z,94.10
2023-02-04T15:23:00.659Z,95.08
2023-02-04T15:25:46.087Z,95.54
2023-02-04T15:28:50.163Z,94.64
2023-02-04T15:31:17.292Z,95.50
2023-02-04T15:33:44.306Z,95.08
2023-02-04T15:36:29.863Z,94.15
2023-02-04T15:39:15.180Z,96.37
2023-02-04T15:41:42.038Z,97.36
2023-02-04T15:44:27.364Z,98.21
2023-02-04T15:46:54.933Z,100.00
2023-02-04T15:49:21.846Z,100.00
2023-02-04T15:51:48.789Z,100.00
2023-02-04T15:54:15.820Z,100.00
2023-02-04T15:56:44.414Z,100.00
2023-02-04T15:59:11.636Z,100.00
2023-02-04T16:01:38.684Z,99.98
2023-02-04T16:04:05.626Z,99.85
2023-02-04T16:06:32.686Z,100.00
2023-02-04T16:08:59.637Z,99.67
2023-02-04T16:11:26.727Z,98.91
2023-02-04T16:13:53.673Z,100.00
2023-02-04T16:16:20.878Z,100.00
2023-02-04T16:18:47.914Z,100.00
2023-02-04T16:21:14.813Z,100.00
2023-02-04T16:23:43.499Z,100.00
2023-02-04T16:26:10.591Z,100.00
2023-02-04T16:28:37.489Z,100.00
2023-02-04T16:31:05.239Z,100.00
2023-02-04T16:33:32.521Z,100.00
2023-02-04T16:36:03.165Z,100.00
2023-02-04T16:38:31.311Z,100.00
2023-02-04T16:40:58.672Z,100.00
2023-02-04T16:43:25.670Z,100.00
2023-02-04T16:45:52.590Z,100.00
2023-02-04T16:48:19.570Z,100.00
2023-02-04T16:50:46.655Z,100.00
2023-02-04T16:53:16.288Z,100.00
2023-02-04T16:55:44.608Z,100.00
2023-02-04T16:58:13.045Z,100.00
2023-02-04T17:00:42.267Z,100.00
2023-02-04T17:03:10.264Z,100.00
2023-02-04T17:05:38.193Z,100.00
2023-02-04T17:08:06.008Z,100.00
2023-02-04T17:10:51.734Z,100.00
2023-02-04T17:13:18.867Z,100.00
2023-02-04T17:15:45.841Z,100.00
2023-02-04T17:18:12.747Z,100.00
2023-02-04T17:20:39.763Z,100.00
2023-02-04T17:23:06.738Z,100.00
2023-02-04T17:25:33.929Z,99.87
2023-02-04T17:28:01.214Z,100.00
2023-02-04T17:30:28.256Z,100.00
2023-02-04T17:32:55.168Z,100.00
2023-02-04T17:35:22.080Z,100.00
2023-02-04T17:37:49.053Z,100.00
2023-02-04T17:40:16.021Z,100.00
2023-02-04T17:42:43.113Z,100.00
2023-02-04T17:45:11.288Z,100.00
2023-02-04T17:47:41.534Z,100.00
2023-02-04T17:50:10.302Z,100.00
2023-02-04T17:52:38.107Z,100.00
2023-02-04T17:55:29.689Z,100.00
2023-02-04T17:57:59.794Z,100.00
2023-02-04T18:00:29.183Z,100.00
2023-02-04T18:02:56.629Z,100.00
2023-02-04T18:05:26.748Z,100.00
2023-02-04T18:08:00.486Z,100.00
2023-02-04T18:10:31.960Z,100.00
2023-02-04T18:13:00.476Z,100.00
2023-02-04T18:15:30.425Z,100.00
2023-02-04T18:18:02.272Z,100.00
2023-02-04T18:20:30.230Z,100.00
2023-02-04T18:23:02.800Z,100.00
2023-02-04T18:25:30.309Z,100.00
2023-02-04T18:28:02.984Z,100.00
2023-02-04T18:30:29.981Z,100.00
2023-02-04T18:32:57.034Z,100.00
2023-02-04T18:35:44.182Z,100.00
2023-02-04T18:38:32.561Z,100.00
2023-02-04T18:41:20.607Z,100.00
2023-02-04T18:43:52.970Z,100.00
2023-02-04T18:46:28.373Z,100.00
2023-02-04T18:49:01.121Z,100.00
2023-02-04T18:51:34.384Z,100.00
2023-02-04T18:54:37.308Z,100.00
2023-02-04T18:57:28.813Z,100.00
2023-02-04T19:00:27.751Z,100.00
2023-02-04T19:02:58.247Z,100.00
2023-02-04T19:05:35.507Z,100.00
2023-02-04T19:08:05.235Z,100.00
2023-02-04T19:10:40.734Z,100.00
2023-02-04T19:13:17.425Z,100.00
2023-02-04T19:15:45.417Z,100.00
2023-02-04T19:18:24.836Z,100.00
2023-02-04T19:20:52.489Z,100.00
2023-02-04T19:23:22.569Z,100.00
2023-02-04T19:25:52.277Z,100.00
2023-02-04T19:28:37.302Z,100.00
2023-02-04T19:31:08.230Z,100.00
2023-02-04T19:33:42.635Z,100.00
2023-02-04T19:36:27.716Z,100.00
2023-02-04T19:39:39.902Z,100.00
2023-02-04T19:42:23.425Z,100.00
2023-02-04T19:44:51.742Z,100.00
2023-02-04T19:47:26.076Z,100.00
2023-02-04T19:50:26.920Z,100.00
2023-02-04T19:52:59.856Z,100.00
2023-02-04T19:55:36.320Z,100.00
2023-02-04T19:58:36.608Z,100.00
2023-02-04T20:01:06.152Z,100.00
2023-02-04T20:03:41.821Z,100.00
2023-02-04T20:06:30.326Z,100.00
2023-02-04T20:09:00.147Z,100.00
2023-02-04T20:11:33.284Z,100.00
2023-02-04T20:14:13.917Z,100.00
2023-02-04T20:16:46.976Z,100.00
2023-02-04T20:19:17.676Z,100.00
2023-02-04T20:21:59.318Z,100.00
2023-02-04T20:24:34.752Z,100.00
2023-02-04T20:27:13.734Z,100.00
2023-02-04T20:29:40.592Z,100.00
2023-02-04T20:32:27.099Z,100.00
2023-02-04T20:35:12.659Z,100.00
2023-02-04T20:37:43.924Z,100.00
2023-02-04T20:40:16.875Z,100.00
2023-02-04T20:42:48.094Z,100.00
2023-02-04T20:45:23.384Z,100.00
2023-02-04T20:47:51.756Z,100.00
2023-02-04T20:50:41.372Z,100.00
2023-02-04T20:53:20.615Z,100.00
2023-02-04T20:55:53.402Z,100.00
2023-02-04T20:58:27.527Z,100.00
2023-02-04T21:00:56.133Z,100.00
2023-02-04T21:03:26.288Z,100.00
2023-02-04T21:05:55.013Z,100.00
2023-02-04T21:08:35.641Z,100.00
2023-02-04T21:11:03.006Z,100.00
2023-02-04T21:13:30.568Z,99.57
2023-02-04T21:15:58.025Z,99.91
2023-02-04T21:18:25.281Z,100.00
2023-02-04T21:20:52.325Z,100.00
2023-02-04T21:23:19.906Z,100.00
2023-02-04T21:25:47.061Z,100.00
2023-02-04T21:28:14.510Z,100.00
2023-02-04T21:30:41.534Z,100.00
2023-02-04T21:33:10.337Z,100.00
2023-02-04T21:35:38.350Z,100.00
2023-02-04T21:38:05.923Z,100.00
2023-02-04T21:40:34.637Z,100.00
2023-02-04T21:43:03.096Z,100.00
2023-02-04T21:45:30.105Z,100.00
2023-02-04T21:47:57.097Z,100.00
2023-02-04T21:50:24.150Z,100.00
2023-02-04T21:52:51.464Z,100.00
2023-02-04T21:55:21.563Z,100.00
2023-02-04T21:57:50.000Z,100.00
2023-02-04T22:00:18.910Z,100.00
2023-02-04T22:02:46.242Z,100.00
2023-02-04T22:05:13.170Z,100.00
2023-02-04T22:07:40.670Z,100.00
2023-02-04T22:10:10.995Z,100.00
2023-02-04T22:12:37.969Z,100.00
2023-02-04T22:15:06.246Z,100.00
2023-02-04T22:17:33.683Z,100.00
2023-02-04T22:20:00.688Z,100.00
2023-02-04T22:22:27.826Z,100.00
2023-02-04T22:24:54.730Z,100.00
2023-02-04T22:27:21.800Z,100.00
2023-02-04T22:29:48.675Z,100.00
2023-02-04T22:32:15.603Z,100.00
2023-02-04T22:34:42.440Z,100.00
2023-02-04T22:37:09.418Z,100.00
2023-02-04T22:39:36.416Z,100.00
2023-02-04T22:42:03.662Z,100.00
2023-02-04T22:44:30.552Z,100.00
2023-02-04T22:46:57.432Z,100.00
2023-02-04T22:49:24.352Z,100.00
2023-02-04T22:51:51.245Z,100.00
2023-02-04T22:54:18.283Z,100.00
2023-02-04T22:56:45.232Z,100.00
2023-02-04T22:59:12.237Z,100.00
2023-02-04T23:01:39.192Z,100.00
2023-02-04T23:04:06.128Z,100.00
2023-02-04T23:06:33.576Z,100.00
2023-02-04T23:09:00.530Z,100.00
2023-02-04T23:11:27.441Z,100.00
2023-02-04T23:13:54.396Z,100.00
2023-02-04T23:16:21.440Z,100.00
2023-02-04T23:18:48.354Z,100.00
2023-02-04T23:21:15.195Z,100.00
2023-02-04T23:23:42.591Z,100.00
2023-02-04T23:26:09.728Z,100.00
2023-02-04T23:28:36.613Z,100.00
2023-02-04T23:31:03.583Z,100.00
2023-02-04T23:33:30.576Z,100.00
2023-02-04T23:35:57.698Z,100.00
2023-02-04T23:38:24.944Z,100.00
2023-02-04T23:40:52.065Z,100.00
2023-02-04T23:43:19.222Z,100.00
2023-02-04T23:45:46.227Z,100.00
2023-02-04T23:48:13.317Z,100.00
2023-02-04T23:50:40.329Z,100.00
2023-02-04T23:53:07.189Z,100.00
2023-02-04T23:55:34.720Z,100.00
2023-02-04T23:58:01.806Z,100.00
